Thursday, August 25, 2016
01:05 UTC
  |  Log In   |  Register Free
Airport Search:

Gainesville Municipal Airport
(KGLE)

FAA data valid effective Jul 21 2016 - Sep 15 2016 (unless otherwise noted).

 
 
 
 
 
 
 
 
 
 
 
 
 
 
Current Aviation Weather for KGLE

Weather Summary


The most recent METAR observation for GLE was updated at: 12:55 UTC
METAR for GLE is not available. Closest METAR is for
METAR

METAR KGLE 250055Z 17008KT 29/20 A3002 RMK AO2 T02890200

METAR KGLE 250035Z 17008KT 30/20 A3002 RMK AO2 T02990202 PWINO

METAR KGLE 250015Z 17007KT 10SM 31/20 A3002 RMK AO2 T03070203

METAR KGLE 242355Z 17011KT 31/20 A3002 RMK AO2 T03120197 10325 20305 PWINO

METAR KGLE 242335Z 18014G17KT 10SM 32/19 A3002 RMK AO2 T03150194

METAR KGLE 242315Z 18015G19KT 10SM 32/20 A3002 RMK AO2 T03170201

METAR KGLE 242255Z 17012G19KT 10SM 32/21 A3003 RMK AO2 T03200206

METAR KGLE 242235Z 16014G20KT 32/21 A3004 RMK AO2 T03200209 PWINO

METAR KGLE 242215Z 17012KT 32/21 A3004 RMK AO2 T03210208

METAR K0F2 250055Z 15007KT 10SM CLR 30/20 A3000 RMK AO2 T02990200

METAR K1F0 250055Z 18006KT 10SM CLR 30/18 A3000 RMK AO2

METAR KDTO 250053Z 15012KT 10SM CLR 30/21 A3000 RMK AO2 SLP149 T03000211

TAF for GLE is not available.
TAF
Sorry we do not have any TAF information for GLE
GlobalAir.com is loading additional information.
 Current Weather at GLE
88.0 F° (31.2 C°)

South winds at 12.7 mph
Pressure:
30.02 in
Humidity:
50%
Wind:
South at 12.7 mph
Dew Point:
67.5 F° (19.7 C°)
Visibility:
mi
GLE NOAA Radar




Find All Airport Services Find A Hotel Find A Rental Car Find A Golf Course Find A Restaurant $100 Hamburger



Airport Weather Forecast for KGLE

Translated METAR for KGLE (0055 UTC)
METAR:
KGLE 250055Z AUTO Gainesville Municipal, Gainesville, TX (KGLE). Aug 25, 0055Z, Automated. Wind from 170° at 8 knots, Temperature 29°C, Dewpoint 20°C, Altimeter is 30.02. Remarks: automated station with precipitation discriminator hourly temp 28.9°C dewpoint 20.0°C
Conditions at:
KGLE (Gainesville Muni, TX) observed 0055 UTC 24 August 2016
Temperature:
88.0 F° (31.2 C°)
Dewpoint:
not reported - refer to area weather report
Pressure:
30.02 Hg
Winds:
not reported
Visibility:
not reported - refer to area weather report
Ceiling:
at least 12,000 feet AGL
Clouds:
not reported - refer to area weather report
Remarks:
site is un-manned

Translated TAF for TAF for GLE is not available. Refer to local area forecast.
FBO's on the Field
FBO Company Facility Photos Services Transportation Aviation Fuel Prices: Prices include tax
Catering Weather Repair Courtesy Rental Type 100LL JetA JetA+ MOGAS 8087
 
City of Gainesville Municipal Airport

This FBO has not yet been rated
FS:Phillips 66
Last Updated: Aug-11
Login to update fuel prices
SS:
Contact City of Gainesville Municipal AirportMore FBO Information
 
Add another FBO Facility Photos Catering Weather Repair Courtesy Rental Type 100LL JetA JetA+ MOGAS 8087
Services Transportation Aviation Fuel Prices: Prices include tax


model-print
model-print
model-print
model-print